DIBK

Bouaké Airport

Côte D’Ivoire
METAR DIBK 191400Z 12004KT 8000 NSC 35/02 Q1012 NOSIG
Observed Flight Rules
Jan-19 @ 14:00 UTC (2 hours ago) Marginal Visual Flight Rules
Wind Visibility Clouds
120° at 4 knots 7,998 meters
  • Clear skies
Temperatures Readings
Current 35°C / 95°F
Dewpoint 2°C / 36°F
Humidity 12%
Altimeter 29.88" Hg
Pressure 1012 hPa
Elevation 376
METAR DIBK 191400Z 12004KT 8000 NSC 35/02 Q1012 NOSIG
Observed Flight Rules
Jan-19 @ 14:00 UTC
(2 hours ago)
MVFR
Wind Visibility
120° at 4 knots 7,998 meters
Clouds
  • Clear skies
Temperature Dewpoint
35°C / 95°F 2°C / 36°F
Humidity Altimeter Pressure
12% 29.88" Hg 1012 hPa